Shady Lake, New Jersey
Current Conditions -  °F | °C
As of 10:53 AM on Wednesday 22 Oct 2014 (Local Time) from KFWN Reporting Station
Overcast Overcast  
Wind Chill: 55°   Ceiling: 1500
Heat Index: 55°   Visibility: 10mi
Dew Point: 48°   Wind: 13mph
Humidity: 77%   Direction: 50°NE
Pressure: 29.99"   Gusts: NA
Location:  41.0879°N, 74.3771°W
Report Text: KFWN 221453Z AUTO 05011KT 10SM OVC015 13/09 A2999 RMK AO2 SLP155 T01280089 53006
Loading
Personal Weather Stations






























Interactive Weather Map
Tropical Storm Tracking
New forecast layout! Learn more

10-Day Weather Forecast

Advertisements
Track Severe Weather on mobile